Time;durP1;ratioP1;P1;durP2;ratioP2;P2;SDS_P1;SDS_P2;PMS_P1;PMS_P2;Temp;Humidity;BMP_temperature;BMP_pressure;BME280_temperature;BME280_humidity;BME280_pressure;Samples;Min_cycle;Max_cycle;Signal;HPM_P1;HPM_P2
2024/01/30 00:04:58;;;;;;;23.90;10.43;;;;;;;3.40;69.19;101778.66;10340895;28;20046;-63
2024/01/30 00:09:59;;;;;;;24.13;12.25;;;;;;;3.38;69.30;101768.13;10359948;28;20129;-63
2024/01/30 00:15:01;;;;;;;21.88;10.98;;;;;;;3.35;69.32;101770.09;10349725;28;20053;-63
2024/01/30 00:20:07;;;;;;;22.45;11.60;;;;;;;3.33;69.31;101774.66;10343453;28;20444;-63
2024/01/30 00:25:08;;;;;;;20.08;11.27;;;;;;;3.21;69.27;101775.41;10344625;28;20065;-63
2024/01/30 00:30:11;;;;;;;23.23;11.55;;;;;;;3.23;69.32;101770.84;10343809;28;20081;-63
2024/01/30 00:35:12;;;;;;;21.75;12.15;;;;;;;3.23;69.25;101768.19;10340609;28;20064;-63
2024/01/30 00:40:15;;;;;;;24.40;11.27;;;;;;;3.25;69.11;101763.66;10337428;28;20046;-63
2024/01/30 00:45:20;;;;;;;28.88;13.13;;;;;;;3.18;69.47;101763.19;10343867;28;20497;-63
2024/01/30 00:50:21;;;;;;;24.15;12.07;;;;;;;3.19;69.28;101772.84;10337623;28;20046;-63
2024/01/30 00:55:23;;;;;;;25.45;11.70;;;;;;;3.15;69.56;101773.97;10341041;28;20133;-63
2024/01/30 01:00:28;;;;;;;23.50;10.85;;;;;;;3.09;69.37;101772.53;10345427;28;20865;-63
2024/01/30 01:05:30;;;;;;;26.80;11.70;;;;;;;3.07;69.67;101781.56;10342496;28;20050;-63
2024/01/30 01:10:32;;;;;;;25.58;12.00;;;;;;;3.02;69.35;101778.31;10336679;28;20449;-63
2024/01/30 01:15:33;;;;;;;25.20;11.52;;;;;;;3.01;69.37;101780.13;10342956;28;20117;-63
2024/01/30 01:20:34;;;;;;;22.35;11.15;;;;;;;2.96;69.37;101774.22;10338014;28;20035;-63
2024/01/30 01:25:36;;;;;;;23.33;10.93;;;;;;;2.93;69.74;101772.59;10341714;28;20126;-63
2024/01/30 01:30:38;;;;;;;22.88;10.73;;;;;;;2.90;69.51;101771.91;10337224;28;20042;-62
2024/01/30 01:35:40;;;;;;;19.77;9.50;;;;;;;2.72;70.13;101761.44;10341725;28;20050;-63
2024/01/30 01:40:41;;;;;;;20.15;10.57;;;;;;;2.75;69.95;101758.63;10339772;28;20046;-63
2024/01/30 01:45:42;;;;;;;19.83;10.20;;;;;;;2.70;70.07;101759.81;10347449;28;20151;-63
2024/01/30 01:50:44;;;;;;;19.02;10.02;;;;;;;2.72;70.08;101760.59;10353203;28;20037;-63
2024/01/30 01:55:47;;;;;;;20.55;10.40;;;;;;;2.72;70.01;101768.56;10353972;28;20092;-63
2024/01/30 02:00:51;;;;;;;29.77;13.00;;;;;;;2.70;69.68;101754.53;10348680;28;20038;-63
2024/01/30 02:05:54;;;;;;;27.83;14.15;;;;;;;2.69;69.63;101747.50;10349511;28;20042;-63
2024/01/30 02:10:55;;;;;;;24.67;12.35;;;;;;;2.68;69.87;101751.09;10349561;28;20109;-63
2024/01/30 02:15:57;;;;;;;21.42;10.68;;;;;;;2.61;69.91;101755.03;10352973;28;20385;-63
2024/01/30 02:21:01;;;;;;;20.88;10.10;;;;;;;2.54;69.91;101754.56;10352579;28;20038;-63
2024/01/30 02:26:03;;;;;;;20.08;9.45;;;;;;;2.58;70.01;101750.78;10351733;28;20519;-63
2024/01/30 02:31:05;;;;;;;17.70;8.10;;;;;;;2.58;69.85;101748.13;10349520;28;20038;-63
2024/01/30 02:36:07;;;;;;;17.63;8.57;;;;;;;2.57;69.90;101743.78;10354933;28;20049;-63
2024/01/30 02:41:08;;;;;;;19.45;8.98;;;;;;;2.54;70.08;101739.47;10351568;28;20046;-64
2024/01/30 02:46:09;;;;;;;18.48;8.82;;;;;;;2.54;70.05;101743.94;10351737;28;20076;-63
2024/01/30 02:51:11;;;;;;;19.88;8.55;;;;;;;2.51;69.55;101742.34;10346498;28;20036;-64
2024/01/30 02:56:13;;;;;;;21.17;8.30;;;;;;;2.47;69.70;101747.88;10344879;28;20144;-64
2024/01/30 03:01:14;;;;;;;21.17;9.32;;;;;;;2.44;70.01;101748.09;10346250;28;20046;-63
2024/01/30 03:06:17;;;;;;;19.75;8.70;;;;;;;2.39;70.31;101751.00;10342712;28;20137;-65
2024/01/30 03:11:19;;;;;;;16.40;8.27;;;;;;;2.39;70.16;101748.34;10346648;28;20129;-64
2024/01/30 03:16:20;;;;;;;19.33;9.30;;;;;;;2.36;70.20;101751.19;10344476;28;20497;-64
2024/01/30 03:21:22;;;;;;;17.15;9.07;;;;;;;2.35;69.87;101749.44;10358262;28;20120;-63
2024/01/30 03:26:24;;;;;;;18.02;9.35;;;;;;;2.31;70.04;101750.56;10341428;28;20646;-64
2024/01/30 03:31:25;;;;;;;17.13;8.43;;;;;;;2.28;70.46;101748.13;10337067;28;20160;-63
2024/01/30 03:36:27;;;;;;;18.35;9.05;;;;;;;2.30;70.53;101749.72;10344489;28;20065;-63
2024/01/30 03:41:29;;;;;;;22.08;8.13;;;;;;;2.35;69.89;101752.97;10341120;28;20129;-63
2024/01/30 03:46:31;;;;;;;21.15;8.88;;;;;;;2.36;70.22;101743.22;10339376;28;20050;-62
2024/01/30 03:51:32;;;;;;;15.48;7.72;;;;;;;2.33;70.17;101751.34;10343286;28;20046;-64
2024/01/30 03:56:34;;;;;;;16.35;9.18;;;;;;;2.31;70.58;101739.97;10346803;28;20053;-64
2024/01/30 04:01:35;;;;;;;20.52;9.68;;;;;;;2.31;70.32;101747.91;10341327;28;20041;-64
2024/01/30 04:06:37;;;;;;;20.00;9.20;;;;;;;2.29;70.42;101750.69;10345527;28;20042;-64
2024/01/30 04:11:39;;;;;;;22.55;9.05;;;;;;;2.22;70.36;101744.00;10339493;28;20046;-63
2024/01/30 04:16:41;;;;;;;17.40;8.93;;;;;;;2.24;70.41;101743.94;10341490;28;20046;-64
2024/01/30 04:21:42;;;;;;;20.58;8.75;;;;;;;2.13;70.74;101740.09;10340119;28;20720;-63
2024/01/30 04:26:44;;;;;;;17.83;8.48;;;;;;;2.16;70.70;101737.25;10339705;28;20046;-64
2024/01/30 04:31:45;;;;;;;17.67;7.97;;;;;;;2.24;70.69;101728.00;10342024;28;20042;-63
2024/01/30 04:36:46;;;;;;;18.15;9.10;;;;;;;2.29;70.17;101729.47;10346167;28;20514;-64
2024/01/30 04:41:48;;;;;;;17.50;7.95;;;;;;;2.28;70.56;101726.88;10338453;28;20038;-64
2024/01/30 04:46:49;;;;;;;15.27;7.22;;;;;;;2.18;70.41;101738.00;10344112;28;20124;-63
2024/01/30 04:51:51;;;;;;;19.77;8.77;;;;;;;2.25;70.46;101737.66;10354002;28;20048;-64
2024/01/30 04:56:53;;;;;;;20.05;7.75;;;;;;;2.28;70.87;101740.16;10353431;28;20046;-62
2024/01/30 05:01:55;;;;;;;17.63;7.97;;;;;;;2.30;70.86;101738.25;10329133;28;20050;-63
2024/01/30 05:06:57;;;;;;;19.85;9.40;;;;;;;2.32;70.26;101745.19;10338254;28;20128;-63
2024/01/30 05:11:59;;;;;;;16.83;8.63;;;;;;;2.33;70.16;101751.34;10337359;28;20425;-64
2024/01/30 05:17:02;;;;;;;19.63;10.05;;;;;;;2.32;70.07;101745.19;10343129;28;20501;-64
2024/01/30 05:22:04;;;;;;;18.33;9.15;;;;;;;2.31;70.33;101753.22;10342545;28;20049;-65
2024/01/30 05:27:06;;;;;;;20.67;9.82;;;;;;;2.27;70.84;101754.34;10335120;28;20064;-64
2024/01/30 05:32:07;;;;;;;17.40;8.98;;;;;;;2.31;71.02;101750.56;10338922;28;20145;-63
2024/01/30 05:37:09;;;;;;;18.85;9.45;;;;;;;2.33;70.40;101751.34;10338453;28;20588;-64
2024/01/30 05:42:10;;;;;;;18.75;10.05;;;;;;;2.33;70.25;101768.13;10342921;28;20077;-63
2024/01/30 05:47:12;;;;;;;23.27;9.50;;;;;;;2.34;70.71;101769.84;10337713;28;20049;-63
2024/01/30 05:52:15;;;;;;;17.83;9.57;;;;;;;2.34;70.15;101767.19;10338808;28;20066;-63
2024/01/30 05:57:16;;;;;;;20.50;10.02;;;;;;;2.33;70.71;101769.91;10335274;28;20066;-63
2024/01/30 06:02:17;;;;;;;18.42;10.43;;;;;;;2.32;71.06;101768.22;10333414;28;20046;-63
2024/01/30 06:07:19;;;;;;;20.98;10.40;;;;;;;2.32;71.12;101766.41;10337753;28;20046;-63
2024/01/30 06:12:21;;;;;;;16.42;9.13;;;;;;;2.32;70.77;101777.03;10338293;28;20859;-64
2024/01/30 06:17:23;;;;;;;21.48;10.63;;;;;;;2.29;71.19;101766.59;10337487;28;20042;-63
2024/01/30 06:22:24;;;;;;;41.13;17.80;;;;;;;2.29;70.76;101771.03;10334010;28;20153;-63
2024/01/30 06:27:26;;;;;;;25.20;13.10;;;;;;;2.27;70.82;101767.59;10336726;28;20050;-64
2024/01/30 06:32:28;;;;;;;28.83;12.38;;;;;;;2.27;70.88;101767.59;10341163;28;20392;-63
2024/01/30 06:37:30;;;;;;;25.80;11.65;;;;;;;2.26;70.68;101756.16;10349062;28;20046;-64
2024/01/30 06:42:31;;;;;;;21.33;10.65;;;;;;;2.25;70.83;101759.75;10320817;28;20508;-67
2024/01/30 06:47:33;;;;;;;20.25;10.73;;;;;;;2.24;71.33;101762.50;10351517;28;20041;-67
2024/01/30 06:52:34;;;;;;;39.80;17.40;;;;;;;2.22;70.70;101761.72;10344661;28;20088;-67
2024/01/30 06:57:36;;;;;;;35.78;14.93;;;;;;;2.24;71.05;101760.69;10349915;28;20558;-67
2024/01/30 07:02:37;;;;;;;28.50;14.98;;;;;;;2.25;70.73;101766.84;10344660;28;20137;-68
2024/01/30 07:07:39;;;;;;;27.40;12.10;;;;;;;2.38;70.28;101767.88;10342122;28;20402;-69
2024/01/30 07:12:40;;;;;;;25.48;12.25;;;;;;;2.42;70.69;101760.59;10343731;28;20046;-69
2024/01/30 07:17:42;;;;;;;28.45;14.23;;;;;;;2.50;70.40;101758.34;10342904;28;20128;-68
2024/01/30 07:22:44;;;;;;;28.38;12.70;;;;;;;2.56;70.50;101763.28;10345128;28;20144;-67
2024/01/30 07:27:45;;;;;;;24.05;12.10;;;;;;;2.57;70.92;101760.56;10343351;28;20375;-67
2024/01/30 07:32:47;;;;;;;20.88;9.63;;;;;;;2.66;70.64;101753.00;10351761;28;20097;-68
2024/01/30 07:37:48;;;;;;;24.02;12.48;;;;;;;2.80;70.84;101757.50;10345497;28;20038;-67
2024/01/30 07:42:50;;;;;;;21.67;11.65;;;;;;;2.90;70.82;101753.34;10360271;28;20425;-67
2024/01/30 07:47:51;;;;;;;22.10;12.15;;;;;;;2.94;70.89;101754.84;10341592;28;20113;-67
2024/01/30 07:52:54;;;;;;;24.25;13.13;;;;;;;3.02;70.92;101755.28;10338885;28;20158;-67
2024/01/30 07:57:56;;;;;;;32.15;13.70;;;;;;;3.18;71.10;101764.03;10345353;28;20396;-67
2024/01/30 08:02:58;;;;;;;30.48;14.18;;;;;;;3.28;70.61;101758.13;10357995;28;20050;-67
2024/01/30 08:08:00;;;;;;;33.28;15.18;;;;;;;3.36;70.93;101769.16;10360473;28;20444;-68
2024/01/30 08:13:02;;;;;;;29.35;14.00;;;;;;;3.51;70.80;101770.00;10341634;28;20443;-67
2024/01/30 08:18:05;;;;;;;29.33;14.88;;;;;;;3.61;70.38;101772.94;10345965;28;20050;-67
2024/01/30 08:23:07;;;;;;;33.20;14.68;;;;;;;3.77;70.79;101773.69;10345518;28;20050;-68
2024/01/30 08:28:09;;;;;;;31.00;14.15;;;;;;;4.00;70.87;101768.72;10348242;28;20050;-67
2024/01/30 08:33:11;;;;;;;25.67;14.07;;;;;;;4.20;70.83;101770.94;10343023;28;20054;-66
2024/01/30 08:38:13;;;;;;;28.23;15.15;;;;;;;4.35;70.62;101763.78;10349554;28;20046;-67
2024/01/30 08:43:15;;;;;;;28.65;15.63;;;;;;;4.56;71.11;101765.03;10344673;28;20054;-68
2024/01/30 08:48:17;;;;;;;30.80;15.90;;;;;;;4.86;71.18;101760.41;10341467;28;20077;-67
2024/01/30 08:53:19;;;;;;;29.83;15.38;;;;;;;5.06;70.83;101764.38;10357084;28;20042;-68
2024/01/30 08:58:21;;;;;;;33.22;14.90;;;;;;;5.31;70.59;101763.53;10346171;28;20042;-68
2024/01/30 09:03:22;;;;;;;28.13;14.85;;;;;;;5.44;71.33;101775.06;10346147;28;20057;-67
2024/01/30 09:08:24;;;;;;;29.73;14.80;;;;;;;5.55;71.11;101775.16;10340426;28;20109;-69
2024/01/30 09:13:25;;;;;;;28.83;15.25;;;;;;;5.69;71.30;101765.34;10339315;28;20049;-67
2024/01/30 09:18:27;;;;;;;29.58;14.50;;;;;;;5.98;70.66;101771.25;10339696;28;20444;-67
2024/01/30 09:23:28;;;;;;;28.70;16.02;;;;;;;6.19;70.95;101758.19;10340205;28;20050;-68
2024/01/30 09:28:30;;;;;;;26.17;13.43;;;;;;;6.40;70.09;101785.13;10358964;28;20057;-67
2024/01/30 09:33:31;;;;;;;24.20;12.80;;;;;;;6.49;70.03;101784.44;10344654;28;20046;-68
2024/01/30 09:38:33;;;;;;;24.88;14.10;;;;;;;6.55;70.14;101783.13;10338530;28;20042;-68
2024/01/30 09:43:34;;;;;;;22.30;13.68;;;;;;;6.70;70.50;101771.28;10338070;28;20560;-67
2024/01/30 09:48:36;;;;;;;22.35;13.25;;;;;;;6.82;70.20;101769.50;10347424;28;20046;-68
2024/01/30 09:53:39;;;;;;;24.65;12.25;;;;;;;7.07;69.98;101772.97;10337195;28;20532;-67
2024/01/30 09:58:41;;;;;;;21.25;12.70;;;;;;;7.18;69.69;101764.97;10337971;28;20038;-68
2024/01/30 10:03:43;;;;;;;24.30;13.20;;;;;;;7.35;69.50;101772.53;10339322;28;20505;-68
2024/01/30 10:08:45;;;;;;;22.23;12.68;;;;;;;7.47;69.93;101767.22;10348524;28;20076;-67
2024/01/30 10:13:46;;;;;;;22.55;13.10;;;;;;;7.53;69.51;101759.53;10348720;28;20053;-67
2024/01/30 10:18:47;;;;;;;19.65;12.95;;;;;;;7.74;69.21;101758.81;10348390;28;20042;-68
2024/01/30 10:23:49;;;;;;;22.30;11.73;;;;;;;7.79;69.03;101750.41;10345638;28;20052;-68
2024/01/30 10:28:51;;;;;;;20.67;12.70;;;;;;;7.89;68.76;101746.03;10354033;28;20042;-67
2024/01/30 10:33:52;;;;;;;20.88;12.32;;;;;;;7.71;68.89;101751.88;10366265;28;20465;-68
2024/01/30 10:39:08;;;;;;;22.85;12.73;;;;;;;7.66;68.71;101739.84;10345515;28;20053;-68
2024/01/30 10:44:11;;;;;;;18.48;11.30;;;;;;;7.68;68.94;101735.19;10349378;28;20045;-68
2024/01/30 10:49:14;;;;;;;27.15;11.82;;;;;;;7.55;69.03;101733.50;10346444;28;20042;-71
2024/01/30 10:54:17;;;;;;;24.70;13.45;;;;;;;7.62;69.05;101736.56;10343987;28;20108;-69
2024/01/30 10:59:22;;;;;;;19.60;12.38;;;;;;;7.64;68.83;101737.31;10348781;28;20050;-71
2024/01/30 11:04:25;;;;;;;20.70;12.20;;;;;;;7.71;68.66;101751.03;10366890;23;20042;-84
2024/01/30 11:09:29;;;;;;;20.83;12.88;;;;;;;7.85;68.69;101755.28;10362374;28;20397;-84
2024/01/30 11:14:31;;;;;;;17.58;11.95;;;;;;;7.87;68.19;101753.31;10355908;28;20046;-84
2024/01/30 11:19:33;;;;;;;20.95;13.20;;;;;;;7.95;68.16;101746.38;10350054;28;20053;-86
2024/01/30 11:24:44;;;;;;;22.90;12.15;;;;;;;8.13;67.87;101744.00;10366941;28;20053;-88
2024/01/30 11:29:50;;;;;;;18.20;12.27;;;;;;;8.22;67.76;101744.25;10352551;28;20129;-85
2024/01/30 11:34:52;;;;;;;19.20;11.63;;;;;;;8.31;67.72;101741.69;10357991;28;20100;-89
2024/01/30 11:39:54;;;;;;;20.17;11.73;;;;;;;8.33;67.20;101725.44;10353906;28;20107;-89
2024/01/30 11:44:56;;;;;;;20.88;12.30;;;;;;;8.42;67.32;101722.06;10356803;28;20069;-89
2024/01/30 11:49:58;;;;;;;22.40;12.00;;;;;;;8.61;67.10;101707.97;10360152;28;20503;-88
2024/01/30 11:55:02;;;;;;;24.02;12.10;;;;;;;8.80;66.33;101701.88;10353781;28;20421;-89
2024/01/30 12:00:10;;;;;;;18.90;11.63;;;;;;;9.03;66.49;101696.38;10346324;28;20501;-89
2024/01/30 12:05:12;;;;;;;15.25;10.30;;;;;;;9.39;65.74;101700.34;10343859;28;20061;-91
2024/01/30 12:10:14;;;;;;;20.13;11.77;;;;;;;9.48;65.43;101704.94;10360520;28;20037;-90
2024/01/30 12:15:21;;;;;;;21.23;12.30;;;;;;;9.76;64.99;101699.78;10346561;28;20117;-90
2024/01/30 12:20:23;;;;;;;19.73;11.82;;;;;;;9.89;64.95;101696.84;10365067;28;20053;-88
2024/01/30 12:25:25;;;;;;;20.73;11.52;;;;;;;10.03;64.53;101699.16;10351293;28;20042;-89
2024/01/30 12:30:30;;;;;;;17.63;10.90;;;;;;;10.14;64.45;101692.78;10355899;28;20580;-89
2024/01/30 12:35:31;;;;;;;16.85;10.30;;;;;;;10.22;63.78;101686.72;10353200;28;20134;-88
2024/01/30 12:40:34;;;;;;;25.58;11.05;;;;;;;10.35;63.82;101671.19;10352001;28;20057;-88
2024/01/30 12:45:37;;;;;;;19.73;10.75;;;;;;;10.34;63.97;101660.56;10346878;28;20048;-84
2024/01/30 12:50:39;;;;;;;22.23;11.20;;;;;;;10.39;63.70;101661.00;10347878;28;20121;-85
2024/01/30 12:55:41;;;;;;;20.55;11.07;;;;;;;10.37;63.39;101658.47;10348864;28;20653;-85
2024/01/30 13:00:43;;;;;;;18.70;10.90;;;;;;;10.52;63.27;101643.59;10356828;28;20066;-85
2024/01/30 13:05:44;;;;;;;15.38;9.45;;;;;;;10.66;62.84;101655.75;10560466;23;20067;-72
2024/01/30 13:10:46;;;;;;;20.08;10.18;;;;;;;10.80;62.83;101648.19;10345787;28;20042;-73
2024/01/30 13:15:51;;;;;;;16.33;10.07;;;;;;;11.07;62.50;101625.88;10355097;28;20392;-73
2024/01/30 13:20:52;;;;;;;19.85;10.10;;;;;;;11.05;62.46;101630.56;10364705;28;20081;-73
2024/01/30 13:25:57;;;;;;;17.13;9.73;;;;;;;11.07;62.20;101636.66;10328053;28;20118;-74
2024/01/30 13:30:59;;;;;;;17.25;10.35;;;;;;;11.04;62.19;101634.25;10324543;28;20050;-73
2024/01/30 13:36:01;;;;;;;14.45;9.98;;;;;;;10.98;61.90;101640.22;10317253;28;20047;-73
2024/01/30 13:41:03;;;;;;;18.15;9.60;;;;;;;11.00;62.06;101648.97;10309220;28;20127;-69
2024/01/30 13:46:05;;;;;;;17.02;9.30;;;;;;;11.17;61.38;101636.59;10315459;28;20077;-69
2024/01/30 13:51:06;;;;;;;16.67;9.90;;;;;;;11.31;61.23;101655.81;10317388;28;20050;-70
2024/01/30 13:56:08;;;;;;;16.50;9.55;;;;;;;11.28;61.33;101647.19;10300747;28;20070;-73
2024/01/30 14:01:09;;;;;;;20.95;10.05;;;;;;;11.30;61.12;101650.59;10302257;28;20050;-70
2024/01/30 14:06:12;;;;;;;15.27;9.45;;;;;;;11.29;61.05;101652.44;10298880;28;20393;-68
2024/01/30 14:11:14;;;;;;;17.88;9.63;;;;;;;11.35;60.94;101647.44;10304199;28;20050;-73
2024/01/30 14:16:15;;;;;;;15.98;8.65;;;;;;;11.36;61.28;101655.38;10302649;28;20042;-72
2024/01/30 14:21:17;;;;;;;18.77;10.02;;;;;;;11.22;61.17;101669.31;10310733;28;20046;-72
2024/01/30 14:26:18;;;;;;;20.35;10.27;;;;;;;11.19;61.36;101667.75;10311708;28;20656;-72
2024/01/30 14:31:21;;;;;;;15.23;9.55;;;;;;;11.12;61.54;101661.28;10310176;28;20038;-71
2024/01/30 14:36:27;;;;;;;15.90;9.18;;;;;;;10.94;61.68;101679.16;10314839;28;20421;-72
2024/01/30 14:41:29;;;;;;;15.18;9.75;;;;;;;10.90;61.64;101670.56;10313502;28;20043;-71
2024/01/30 14:46:31;;;;;;;19.08;10.45;;;;;;;10.77;61.92;101675.41;10301903;28;20054;-68
2024/01/30 14:51:32;;;;;;;17.23;10.10;;;;;;;10.64;62.25;101687.31;10304458;28;20462;-66
2024/01/30 14:56:34;;;;;;;16.30;9.73;;;;;;;10.54;62.09;101682.91;10302759;28;20042;-68
2024/01/30 15:01:36;;;;;;;20.25;10.30;;;;;;;10.47;62.58;101677.28;10304110;28;20125;-67
2024/01/30 15:06:37;;;;;;;16.45;10.23;;;;;;;10.50;62.45;101676.97;10305646;28;20055;-67
2024/01/30 15:11:39;;;;;;;16.65;9.98;;;;;;;10.42;62.14;101696.50;10304047;28;20486;-67
2024/01/30 15:16:41;;;;;;;20.23;10.52;;;;;;;10.32;62.47;101692.97;10307246;28;20142;-68
2024/01/30 15:21:42;;;;;;;16.02;10.52;;;;;;;10.35;62.47;101710.63;10307120;28;20468;-67
2024/01/30 15:26:44;;;;;;;19.45;10.90;;;;;;;10.34;62.60;101701.72;10297588;28;20044;-68
2024/01/30 15:31:45;;;;;;;18.58;10.40;;;;;;;10.24;62.77;101709.75;10307167;28;20038;-68
2024/01/30 15:36:47;;;;;;;18.65;10.77;;;;;;;10.26;62.87;101713.16;10303216;28;20049;-67
2024/01/30 15:41:49;;;;;;;17.33;10.98;;;;;;;10.34;62.54;101703.59;10305140;28;20125;-68
2024/01/30 15:46:50;;;;;;;22.83;10.63;;;;;;;10.44;62.15;101707.13;10303374;28;20053;-68
2024/01/30 15:51:52;;;;;;;17.88;10.45;;;;;;;10.43;62.36;101713.50;10306471;28;20053;-68
2024/01/30 15:56:53;;;;;;;15.82;9.82;;;;;;;10.47;62.50;101726.50;10300707;28;20371;-68
2024/01/30 16:01:54;;;;;;;20.05;12.05;;;;;;;10.56;62.37;101740.94;10306469;28;20054;-68
2024/01/30 16:06:56;;;;;;;20.90;11.82;;;;;;;10.53;62.41;101733.16;10316407;23;20158;-68
2024/01/30 16:11:58;;;;;;;18.98;12.18;;;;;;;10.54;62.38;101734.00;10339483;28;20057;-68
2024/01/30 16:17:00;;;;;;;26.52;12.90;;;;;;;10.47;62.28;101729.19;10342274;28;20448;-69
2024/01/30 16:22:02;;;;;;;20.00;12.27;;;;;;;10.46;62.45;101724.78;10342170;28;20564;-67
2024/01/30 16:27:04;;;;;;;22.27;12.30;;;;;;;10.43;62.26;101729.63;10342755;28;20123;-67
2024/01/30 16:32:06;;;;;;;24.88;12.35;;;;;;;10.32;62.75;101728.75;10343265;28;20074;-68
2024/01/30 16:37:07;;;;;;;19.60;12.00;;;;;;;10.28;62.51;101739.91;10344542;28;20042;-63
2024/01/30 16:42:09;;;;;;;22.58;13.70;;;;;;;10.30;62.44;101741.47;10372851;28;20046;-61
2024/01/30 16:47:10;;;;;;;25.25;14.52;;;;;;;10.23;62.88;101734.94;10345657;28;20058;-62
2024/01/30 16:52:12;;;;;;;25.35;15.15;;;;;;;10.14;62.91;101733.09;10341253;28;20485;-62
2024/01/30 16:57:13;;;;;;;21.98;12.88;;;;;;;10.08;63.28;101739.84;10341468;28;20073;-63
2024/01/30 17:02:15;;;;;;;25.58;12.80;;;;;;;10.01;63.45;101746.78;10339156;28;20046;-63
2024/01/30 17:07:16;;;;;;;23.10;13.48;;;;;;;9.99;63.43;101748.78;10337900;28;20089;-62
2024/01/30 17:12:18;;;;;;;19.17;11.48;;;;;;;9.95;63.40;101752.69;10336323;28;20404;-62
2024/01/30 17:17:20;;;;;;;20.25;11.48;;;;;;;9.91;63.51;101762.00;10340405;28;20049;-62
2024/01/30 17:22:21;;;;;;;22.40;11.45;;;;;;;9.82;64.03;101770.91;10334807;28;20129;-63
2024/01/30 17:27:23;;;;;;;20.42;13.43;;;;;;;9.81;64.14;101770.03;10338373;28;20045;-62
2024/01/30 17:32:25;;;;;;;20.80;12.25;;;;;;;9.76;64.27;101774.97;10347414;28;20044;-63
2024/01/30 17:37:27;;;;;;;24.10;12.10;;;;;;;9.74;64.56;101790.38;10365269;28;20064;-62
2024/01/30 17:42:28;;;;;;;22.67;12.13;;;;;;;9.77;64.57;101794.63;10362357;28;20041;-62
2024/01/30 17:47:30;;;;;;;29.10;12.43;;;;;;;9.80;64.57;101784.47;10363626;28;20050;-62
2024/01/30 17:52:32;;;;;;;21.17;10.63;;;;;;;9.83;64.39;101794.91;10362125;28;20046;-62
2024/01/30 17:57:34;;;;;;;17.48;9.75;;;;;;;9.83;64.62;101794.06;10368978;28;20574;-63
2024/01/30 18:02:36;;;;;;;15.88;9.82;;;;;;;9.86;65.17;101802.72;10342302;28;20211;-63
2024/01/30 18:07:38;;;;;;;15.50;9.82;;;;;;;9.95;65.64;101805.56;10342019;28;20054;-63
2024/01/30 18:12:41;;;;;;;18.15;9.30;;;;;;;10.06;65.44;101813.53;10341768;28;20058;-64
2024/01/30 18:17:42;;;;;;;23.73;11.48;;;;;;;10.16;65.64;101821.63;10339024;28;20404;-63
2024/01/30 18:22:45;;;;;;;15.70;9.27;;;;;;;10.27;65.62;101829.59;10330969;28;20074;-63
2024/01/30 18:27:47;;;;;;;16.15;9.95;;;;;;;10.33;65.42;101837.13;10339368;28;20069;-63
2024/01/30 18:32:48;;;;;;;18.60;10.00;;;;;;;10.41;65.46;101828.38;10348080;28;20074;-63
2024/01/30 18:37:50;;;;;;;24.67;12.00;;;;;;;10.30;65.98;101829.31;10343800;28;20057;-63
2024/01/30 18:42:52;;;;;;;17.77;10.95;;;;;;;10.23;66.39;101833.50;10341714;28;20042;-63
2024/01/30 18:47:53;;;;;;;17.48;9.80;;;;;;;10.26;66.26;101830.56;10343573;28;20045;-62
2024/01/30 18:52:56;;;;;;;16.25;9.70;;;;;;;10.25;66.07;101832.41;10346677;28;20050;-62
2024/01/30 18:57:57;;;;;;;20.00;9.80;;;;;;;10.25;66.17;101842.31;10345766;28;20041;-62
2024/01/30 19:02:59;;;;;;;19.55;10.07;;;;;;;10.33;66.37;101855.94;10346519;28;20753;-62
2024/01/30 19:08:00;;;;;;;23.30;12.10;;;;;;;10.42;66.28;101847.03;10348187;28;20061;-63
2024/01/30 19:13:05;;;;;;;20.35;11.45;;;;;;;10.52;65.94;101852.44;10347622;28;20049;-63
2024/01/30 19:18:06;;;;;;;22.50;11.82;;;;;;;10.57;65.64;101855.56;10342822;28;20050;-63
2024/01/30 19:23:08;;;;;;;22.70;11.20;;;;;;;10.50;65.77;101849.03;10344698;28;20461;-63
2024/01/30 19:28:10;;;;;;;21.17;10.65;;;;;;;10.46;65.99;101853.84;10343651;28;20669;-63
2024/01/30 19:33:12;;;;;;;19.80;11.48;;;;;;;10.51;65.68;101858.81;10338106;28;20054;-62
2024/01/30 19:38:14;;;;;;;19.75;10.98;;;;;;;10.44;65.83;101873.78;10344203;28;20069;-63
2024/01/30 19:43:15;;;;;;;18.75;12.05;;;;;;;10.41;66.06;101872.22;10346758;28;20053;-63
2024/01/30 19:48:17;;;;;;;20.77;11.30;;;;;;;10.36;65.82;101869.09;10341308;28;20049;-64
2024/01/30 19:53:20;;;;;;;18.33;11.05;;;;;;;10.27;66.34;101869.91;10343471;28;20050;-62
2024/01/30 19:58:22;;;;;;;17.80;11.18;;;;;;;10.20;66.52;101860.66;10348735;28;20057;-64
2024/01/30 20:03:23;;;;;;;22.33;11.35;;;;;;;10.04;66.95;101861.19;10343251;28;20050;-63
2024/01/30 20:08:25;;;;;;;21.13;12.25;;;;;;;9.93;67.09;101870.16;10343973;28;20048;-63
2024/01/30 20:13:27;;;;;;;20.67;11.55;;;;;;;9.89;67.30;101871.41;10344521;28;20117;-63
2024/01/30 20:18:31;;;;;;;28.42;12.90;;;;;;;9.92;66.81;101884.59;10366254;28;20104;-62
2024/01/30 20:23:33;;;;;;;24.48;13.48;;;;;;;9.96;67.15;101888.72;10366226;28;20045;-62
2024/01/30 20:28:34;;;;;;;23.80;12.43;;;;;;;10.07;67.20;101898.50;10355385;28;20654;-63
2024/01/30 20:33:36;;;;;;;22.15;12.60;;;;;;;10.16;66.72;101886.13;10343623;28;20068;-63
2024/01/30 20:38:38;;;;;;;23.95;12.90;;;;;;;10.19;66.90;101885.81;10347036;28;20045;-63
2024/01/30 20:43:41;;;;;;;27.92;13.88;;;;;;;10.23;66.75;101882.75;10348152;28;20044;-63
2024/01/30 20:48:44;;;;;;;20.02;12.25;;;;;;;10.29;66.86;101878.69;10342794;28;20038;-62
2024/01/30 20:53:47;;;;;;;22.70;12.88;;;;;;;10.25;67.06;101877.25;10343183;28;20103;-63
2024/01/30 20:58:48;;;;;;;22.73;12.30;;;;;;;10.30;66.81;101892.00;10346871;28;20045;-64
2024/01/30 21:03:50;;;;;;;19.48;11.43;;;;;;;10.29;66.89;101894.81;10342095;28;20449;-63
2024/01/30 21:08:51;;;;;;;22.65;11.82;;;;;;;10.41;67.18;101891.06;10345315;28;20156;-63
2024/01/30 21:13:53;;;;;;;18.73;11.57;;;;;;;10.47;66.87;101893.19;10367598;28;20117;-62
2024/01/30 21:18:55;;;;;;;22.85;11.90;;;;;;;10.44;66.96;101901.50;10370332;28;20064;-62
2024/01/30 21:23:56;;;;;;;19.92;11.60;;;;;;;10.47;66.96;101890.50;10342150;28;20479;-63
2024/01/30 21:28:58;;;;;;;21.60;12.30;;;;;;;10.47;66.85;101908.47;10345281;28;20136;-62
2024/01/30 21:33:59;;;;;;;24.88;12.15;;;;;;;10.47;67.00;101906.63;10341008;28;20045;-64
2024/01/30 21:39:01;;;;;;;23.52;12.32;;;;;;;10.52;67.08;101911.59;10349419;28;20046;-63
2024/01/30 21:44:03;;;;;;;19.02;11.90;;;;;;;10.62;66.75;101914.31;10340427;28;20485;-63
2024/01/30 21:49:06;;;;;;;20.35;11.52;;;;;;;10.65;67.12;101925.63;10342019;28;20056;-63
2024/01/30 21:54:08;;;;;;;19.05;12.60;;;;;;;10.59;67.36;101918.13;10343728;28;20459;-63
2024/01/30 21:59:10;;;;;;;20.33;12.80;;;;;;;10.72;67.09;101925.94;10346286;28;20132;-63
2024/01/30 22:04:11;;;;;;;18.85;11.32;;;;;;;10.74;66.82;101941.94;10347633;28;20046;-63
2024/01/30 22:09:13;;;;;;;21.55;11.55;;;;;;;10.66;67.20;101946.19;10355601;28;20159;-63
2024/01/30 22:14:15;;;;;;;22.83;11.77;;;;;;;10.67;67.02;101939.78;10350797;28;20042;-63
2024/01/30 22:19:17;;;;;;;30.15;12.07;;;;;;;10.66;67.09;101950.69;10357876;22;20313;-84
2024/01/30 22:24:19;;;;;;;23.52;12.15;;;;;;;10.77;67.04;101947.91;10307066;28;20562;-86
2024/01/30 22:29:23;;;;;;;22.27;12.70;;;;;;;10.83;66.77;101952.72;10320800;28;20122;-87
2024/01/30 22:34:25;;;;;;;25.55;12.73;;;;;;;10.71;67.42;101951.13;10317879;28;20046;-87
2024/01/30 22:39:27;;;;;;;20.10;12.02;;;;;;;10.77;67.42;101958.66;10320146;28;20137;-87
2024/01/30 22:44:29;;;;;;;31.05;13.23;;;;;;;10.75;67.11;101960.63;10313554;28;20035;-86
2024/01/30 22:49:31;;;;;;;16.17;8.75;;;;;;;10.67;67.45;101953.25;10312222;28;20133;-86
2024/01/30 22:54:33;;;;;;;13.95;7.45;;;;;;;10.65;67.81;101944.47;10324166;28;20509;-87